sensor_id;sensor_type;location;lat;lon;timestamp;P1;durP1;ratioP1;P2;durP2;ratioP2
72201;SDS011;60105;54.956;73.412;2023-07-09T00:00:26;6.92;;;3.42;;
72201;SDS011;60105;54.956;73.412;2023-07-09T00:03:27;6.43;;;3.60;;
72201;SDS011;60105;54.956;73.412;2023-07-09T00:06:28;6.27;;;3.70;;
72201;SDS011;60105;54.956;73.412;2023-07-09T00:09:30;6.18;;;3.92;;
72201;SDS011;60105;54.956;73.412;2023-07-09T00:12:31;7.93;;;3.50;;
72201;SDS011;60105;54.956;73.412;2023-07-09T00:15:32;6.13;;;3.17;;
72201;SDS011;60105;54.956;73.412;2023-07-09T00:18:34;6.60;;;3.70;;
72201;SDS011;60105;54.956;73.412;2023-07-09T00:21:36;8.15;;;3.60;;
72201;SDS011;60105;54.956;73.412;2023-07-09T00:24:37;5.95;;;3.30;;
72201;SDS011;60105;54.956;73.412;2023-07-09T00:27:38;7.60;;;3.53;;
72201;SDS011;60105;54.956;73.412;2023-07-09T00:30:40;7.10;;;3.60;;
72201;SDS011;60105;54.956;73.412;2023-07-09T00:33:42;8.53;;;4.63;;
72201;SDS011;60105;54.956;73.412;2023-07-09T00:36:43;9.05;;;5.28;;
72201;SDS011;60105;54.956;73.412;2023-07-09T00:40:26;13.62;;;6.04;;
72201;SDS011;60105;54.956;73.412;2023-07-09T00:43:34;13.93;;;7.30;;
72201;SDS011;60105;54.956;73.412;2023-07-09T00:53:32;18.17;;;7.50;;
72201;SDS011;60105;54.956;73.412;2023-07-09T00:56:35;15.63;;;6.87;;
72201;SDS011;60105;54.956;73.412;2023-07-09T01:00:39;14.03;;;7.38;;
72201;SDS011;60105;54.956;73.412;2023-07-09T01:03:52;18.05;;;7.45;;
72201;SDS011;60105;54.956;73.412;2023-07-09T01:07:00;19.70;;;6.77;;
72201;SDS011;60105;54.956;73.412;2023-07-09T01:13:27;10.45;;;6.07;;
72201;SDS011;60105;54.956;73.412;2023-07-09T01:16:39;10.73;;;4.07;;
72201;SDS011;60105;54.956;73.412;2023-07-09T01:20:26;9.64;;;4.16;;
72201;SDS011;60105;54.956;73.412;2023-07-09T01:23:27;8.45;;;3.88;;
72201;SDS011;60105;54.956;73.412;2023-07-09T01:26:30;6.83;;;4.20;;
72201;SDS011;60105;54.956;73.412;2023-07-09T01:29:32;12.13;;;4.10;;
72201;SDS011;60105;54.956;73.412;2023-07-09T01:32:37;10.13;;;3.60;;
72201;SDS011;60105;54.956;73.412;2023-07-09T01:35:39;8.55;;;3.72;;
72201;SDS011;60105;54.956;73.412;2023-07-09T01:38:43;16.50;;;7.27;;
72201;SDS011;60105;54.956;73.412;2023-07-09T01:41:46;15.77;;;7.17;;
72201;SDS011;60105;54.956;73.412;2023-07-09T01:45:26;22.88;;;6.93;;
72201;SDS011;60105;54.956;73.412;2023-07-09T01:48:29;8.10;;;3.35;;
72201;SDS011;60105;54.956;73.412;2023-07-09T01:51:30;5.10;;;2.90;;
72201;SDS011;60105;54.956;73.412;2023-07-09T01:54:31;7.10;;;3.10;;
72201;SDS011;60105;54.956;73.412;2023-07-09T01:57:38;8.38;;;3.33;;
72201;SDS011;60105;54.956;73.412;2023-07-09T02:00:43;7.53;;;3.80;;
72201;SDS011;60105;54.956;73.412;2023-07-09T02:03:45;6.20;;;3.50;;
72201;SDS011;60105;54.956;73.412;2023-07-09T02:06:47;6.32;;;3.10;;
72201;SDS011;60105;54.956;73.412;2023-07-09T02:10:26;6.00;;;3.40;;
72201;SDS011;60105;54.956;73.412;2023-07-09T02:13:27;6.97;;;3.40;;
72201;SDS011;60105;54.956;73.412;2023-07-09T02:16:29;7.10;;;3.53;;
72201;SDS011;60105;54.956;73.412;2023-07-09T02:19:31;6.70;;;3.33;;
72201;SDS011;60105;54.956;73.412;2023-07-09T02:22:33;9.47;;;3.20;;
72201;SDS011;60105;54.956;73.412;2023-07-09T02:25:35;5.38;;;2.90;;
72201;SDS011;60105;54.956;73.412;2023-07-09T02:28:36;8.60;;;3.15;;
72201;SDS011;60105;54.956;73.412;2023-07-09T02:31:38;6.20;;;2.67;;
72201;SDS011;60105;54.956;73.412;2023-07-09T02:34:41;4.82;;;2.75;;
72201;SDS011;60105;54.956;73.412;2023-07-09T02:37:52;4.63;;;2.50;;
72201;SDS011;60105;54.956;73.412;2023-07-09T02:40:53;7.97;;;3.27;;
72201;SDS011;60105;54.956;73.412;2023-07-09T02:43:55;8.10;;;3.10;;
72201;SDS011;60105;54.956;73.412;2023-07-09T02:46:56;6.47;;;3.78;;
72201;SDS011;60105;54.956;73.412;2023-07-09T02:50:26;5.05;;;2.58;;
72201;SDS011;60105;54.956;73.412;2023-07-09T02:53:27;5.45;;;2.30;;
72201;SDS011;60105;54.956;73.412;2023-07-09T02:56:30;7.13;;;3.30;;
72201;SDS011;60105;54.956;73.412;2023-07-09T02:59:32;6.47;;;2.80;;
72201;SDS011;60105;54.956;73.412;2023-07-09T03:02:33;6.43;;;3.53;;
72201;SDS011;60105;54.956;73.412;2023-07-09T03:05:35;6.13;;;2.03;;
72201;SDS011;60105;54.956;73.412;2023-07-09T03:08:47;6.67;;;2.80;;
72201;SDS011;60105;54.956;73.412;2023-07-09T03:11:48;5.93;;;2.95;;
72201;SDS011;60105;54.956;73.412;2023-07-09T03:15:26;6.63;;;2.75;;
72201;SDS011;60105;54.956;73.412;2023-07-09T03:18:27;6.97;;;2.60;;
72201;SDS011;60105;54.956;73.412;2023-07-09T03:21:28;4.82;;;2.63;;
72201;SDS011;60105;54.956;73.412;2023-07-09T03:24:30;6.35;;;2.47;;
72201;SDS011;60105;54.956;73.412;2023-07-09T03:27:31;7.57;;;3.20;;
72201;SDS011;60105;54.956;73.412;2023-07-09T03:30:33;4.63;;;2.53;;
72201;SDS011;60105;54.956;73.412;2023-07-09T03:33:34;7.27;;;3.30;;
72201;SDS011;60105;54.956;73.412;2023-07-09T03:36:36;5.40;;;2.97;;
72201;SDS011;60105;54.956;73.412;2023-07-09T03:39:38;7.70;;;3.30;;
72201;SDS011;60105;54.956;73.412;2023-07-09T03:42:39;8.38;;;3.25;;
72201;SDS011;60105;54.956;73.412;2023-07-09T03:45:40;7.05;;;2.72;;
72201;SDS011;60105;54.956;73.412;2023-07-09T03:48:42;6.67;;;2.90;;
72201;SDS011;60105;54.956;73.412;2023-07-09T03:51:43;9.13;;;3.10;;
72201;SDS011;60105;54.956;73.412;2023-07-09T03:54:54;8.13;;;3.24;;
72201;SDS011;60105;54.956;73.412;2023-07-09T03:57:57;11.60;;;3.30;;
72201;SDS011;60105;54.956;73.412;2023-07-09T04:01:01;6.50;;;2.60;;
72201;SDS011;60105;54.956;73.412;2023-07-09T04:04:02;7.53;;;2.83;;
72201;SDS011;60105;54.956;73.412;2023-07-09T04:07:04;6.82;;;2.35;;
72201;SDS011;60105;54.956;73.412;2023-07-09T04:13:27;6.13;;;2.67;;
72201;SDS011;60105;54.956;73.412;2023-07-09T04:16:29;10.03;;;3.37;;
72201;SDS011;60105;54.956;73.412;2023-07-09T04:19:30;7.35;;;2.70;;
72201;SDS011;60105;54.956;73.412;2023-07-09T04:22:31;9.47;;;3.00;;
72201;SDS011;60105;54.956;73.412;2023-07-09T04:25:33;5.00;;;2.58;;
72201;SDS011;60105;54.956;73.412;2023-07-09T04:28:34;8.10;;;2.20;;
72201;SDS011;60105;54.956;73.412;2023-07-09T04:31:36;5.70;;;2.00;;
72201;SDS011;60105;54.956;73.412;2023-07-09T04:34:38;6.75;;;2.28;;
72201;SDS011;60105;54.956;73.412;2023-07-09T04:37:40;8.20;;;2.50;;
72201;SDS011;60105;54.956;73.412;2023-07-09T04:40:41;7.88;;;2.33;;
72201;SDS011;60105;54.956;73.412;2023-07-09T04:43:43;5.35;;;2.38;;
72201;SDS011;60105;54.956;73.412;2023-07-09T04:46:44;7.30;;;2.37;;
72201;SDS011;60105;54.956;73.412;2023-07-09T04:50:26;6.02;;;2.40;;
72201;SDS011;60105;54.956;73.412;2023-07-09T04:53:27;6.85;;;2.80;;
72201;SDS011;60105;54.956;73.412;2023-07-09T04:56:29;8.53;;;2.60;;
72201;SDS011;60105;54.956;73.412;2023-07-09T04:59:31;5.40;;;2.33;;
72201;SDS011;60105;54.956;73.412;2023-07-09T05:02:33;5.30;;;2.50;;
72201;SDS011;60105;54.956;73.412;2023-07-09T05:05:34;12.17;;;3.03;;
72201;SDS011;60105;54.956;73.412;2023-07-09T05:08:35;7.90;;;2.20;;
72201;SDS011;60105;54.956;73.412;2023-07-09T05:11:37;9.52;;;2.65;;
72201;SDS011;60105;54.956;73.412;2023-07-09T05:14:38;7.03;;;2.88;;
72201;SDS011;60105;54.956;73.412;2023-07-09T05:17:40;6.87;;;2.63;;
72201;SDS011;60105;54.956;73.412;2023-07-09T05:20:41;7.00;;;2.67;;
72201;SDS011;60105;54.956;73.412;2023-07-09T05:23:43;6.00;;;2.10;;
72201;SDS011;60105;54.956;73.412;2023-07-09T05:26:45;5.83;;;2.70;;
72201;SDS011;60105;54.956;73.412;2023-07-09T05:30:26;5.56;;;2.20;;
72201;SDS011;60105;54.956;73.412;2023-07-09T05:33:27;4.32;;;2.45;;
72201;SDS011;60105;54.956;73.412;2023-07-09T05:36:29;6.13;;;2.75;;
72201;SDS011;60105;54.956;73.412;2023-07-09T05:39:31;7.15;;;2.63;;
72201;SDS011;60105;54.956;73.412;2023-07-09T05:42:32;6.10;;;2.70;;
72201;SDS011;60105;54.956;73.412;2023-07-09T05:45:35;4.83;;;2.20;;
72201;SDS011;60105;54.956;73.412;2023-07-09T05:48:36;11.98;;;2.60;;
72201;SDS011;60105;54.956;73.412;2023-07-09T05:51:38;5.97;;;2.20;;
72201;SDS011;60105;54.956;73.412;2023-07-09T05:54:39;5.73;;;2.33;;
72201;SDS011;60105;54.956;73.412;2023-07-09T05:57:40;10.30;;;2.30;;
72201;SDS011;60105;54.956;73.412;2023-07-09T06:00:42;7.57;;;2.47;;
72201;SDS011;60105;54.956;73.412;2023-07-09T06:03:43;4.82;;;2.45;;
72201;SDS011;60105;54.956;73.412;2023-07-09T06:06:47;6.73;;;2.53;;
72201;SDS011;60105;54.956;73.412;2023-07-09T06:10:26;5.65;;;2.38;;
72201;SDS011;60105;54.956;73.412;2023-07-09T06:13:28;6.45;;;2.40;;
72201;SDS011;60105;54.956;73.412;2023-07-09T06:16:31;5.83;;;2.37;;
72201;SDS011;60105;54.956;73.412;2023-07-09T06:19:32;4.57;;;2.20;;
72201;SDS011;60105;54.956;73.412;2023-07-09T06:22:34;4.78;;;2.30;;
72201;SDS011;60105;54.956;73.412;2023-07-09T06:25:37;6.22;;;2.28;;
72201;SDS011;60105;54.956;73.412;2023-07-09T06:28:39;3.95;;;1.80;;
72201;SDS011;60105;54.956;73.412;2023-07-09T06:31:40;7.67;;;2.70;;
72201;SDS011;60105;54.956;73.412;2023-07-09T06:35:26;7.90;;;2.60;;
72201;SDS011;60105;54.956;73.412;2023-07-09T06:38:27;4.33;;;1.90;;
72201;SDS011;60105;54.956;73.412;2023-07-09T06:41:29;6.03;;;2.20;;
72201;SDS011;60105;54.956;73.412;2023-07-09T06:44:33;5.35;;;2.17;;
72201;SDS011;60105;54.956;73.412;2023-07-09T06:47:35;5.32;;;2.10;;
72201;SDS011;60105;54.956;73.412;2023-07-09T06:50:36;12.83;;;2.17;;
72201;SDS011;60105;54.956;73.412;2023-07-09T06:53:38;4.53;;;2.00;;
72201;SDS011;60105;54.956;73.412;2023-07-09T06:56:40;6.07;;;2.03;;
72201;SDS011;60105;54.956;73.412;2023-07-09T07:00:26;4.67;;;2.21;;
72201;SDS011;60105;54.956;73.412;2023-07-09T07:03:27;7.30;;;2.70;;
72201;SDS011;60105;54.956;73.412;2023-07-09T07:06:29;5.43;;;2.77;;
72201;SDS011;60105;54.956;73.412;2023-07-09T07:09:31;6.20;;;2.70;;
72201;SDS011;60105;54.956;73.412;2023-07-09T07:12:40;6.03;;;2.83;;
72201;SDS011;60105;54.956;73.412;2023-07-09T07:15:47;5.65;;;2.28;;
72201;SDS011;60105;54.956;73.412;2023-07-09T07:18:51;4.83;;;2.33;;
72201;SDS011;60105;54.956;73.412;2023-07-09T07:22:19;5.05;;;2.47;;
72201;SDS011;60105;54.956;73.412;2023-07-09T07:25:31;8.77;;;2.92;;
72201;SDS011;60105;54.956;73.412;2023-07-09T07:28:36;9.05;;;3.15;;
72201;SDS011;60105;54.956;73.412;2023-07-09T07:31:37;8.30;;;2.75;;
72201;SDS011;60105;54.956;73.412;2023-07-09T07:34:39;9.90;;;3.10;;
72201;SDS011;60105;54.956;73.412;2023-07-09T07:37:40;13.27;;;3.23;;
72201;SDS011;60105;54.956;73.412;2023-07-09T07:40:45;9.97;;;2.30;;
72201;SDS011;60105;54.956;73.412;2023-07-09T07:43:46;9.00;;;2.90;;
72201;SDS011;60105;54.956;73.412;2023-07-09T07:46:48;5.70;;;2.60;;
72201;SDS011;60105;54.956;73.412;2023-07-09T07:50:26;5.85;;;2.42;;
72201;SDS011;60105;54.956;73.412;2023-07-09T07:53:27;5.85;;;2.65;;
72201;SDS011;60105;54.956;73.412;2023-07-09T07:56:30;8.17;;;2.83;;
72201;SDS011;60105;54.956;73.412;2023-07-09T07:59:31;9.38;;;2.90;;
72201;SDS011;60105;54.956;73.412;2023-07-09T08:02:35;7.10;;;2.80;;
72201;SDS011;60105;54.956;73.412;2023-07-09T08:05:36;8.77;;;2.15;;
72201;SDS011;60105;54.956;73.412;2023-07-09T08:08:38;5.95;;;2.22;;
72201;SDS011;60105;54.956;73.412;2023-07-09T08:11:40;5.50;;;2.13;;
72201;SDS011;60105;54.956;73.412;2023-07-09T08:15:27;9.58;;;2.84;;
72201;SDS011;60105;54.956;73.412;2023-07-09T08:18:28;8.13;;;2.67;;
72201;SDS011;60105;54.956;73.412;2023-07-09T08:21:30;7.45;;;2.50;;
72201;SDS011;60105;54.956;73.412;2023-07-09T08:24:31;5.90;;;2.70;;
72201;SDS011;60105;54.956;73.412;2023-07-09T08:27:33;8.97;;;3.13;;
72201;SDS011;60105;54.956;73.412;2023-07-09T08:30:35;5.15;;;2.22;;
72201;SDS011;60105;54.956;73.412;2023-07-09T08:33:37;8.40;;;3.03;;
72201;SDS011;60105;54.956;73.412;2023-07-09T08:36:38;9.20;;;2.73;;
72201;SDS011;60105;54.956;73.412;2023-07-09T08:39:39;4.90;;;2.40;;
72201;SDS011;60105;54.956;73.412;2023-07-09T08:42:42;5.00;;;2.22;;
72201;SDS011;60105;54.956;73.412;2023-07-09T08:49:17;8.13;;;2.63;;
72201;SDS011;60105;54.956;73.412;2023-07-09T08:52:26;6.07;;;2.10;;
72201;SDS011;60105;54.956;73.412;2023-07-09T08:55:35;4.47;;;2.15;;
72201;SDS011;60105;54.956;73.412;2023-07-09T08:58:41;5.10;;;2.20;;
72201;SDS011;60105;54.956;73.412;2023-07-09T09:01:50;5.45;;;2.10;;
72201;SDS011;60105;54.956;73.412;2023-07-09T09:05:26;7.00;;;2.67;;
72201;SDS011;60105;54.956;73.412;2023-07-09T09:08:41;5.20;;;2.35;;
72201;SDS011;60105;54.956;73.412;2023-07-09T09:11:54;7.28;;;2.70;;
72201;SDS011;60105;54.956;73.412;2023-07-09T09:18:27;6.85;;;1.98;;
72201;SDS011;60105;54.956;73.412;2023-07-09T09:21:34;4.03;;;1.80;;
72201;SDS011;60105;54.956;73.412;2023-07-09T09:27:51;7.77;;;2.50;;
72201;SDS011;60105;54.956;73.412;2023-07-09T09:30:53;7.77;;;2.70;;
72201;SDS011;60105;54.956;73.412;2023-07-09T09:33:54;9.02;;;2.80;;
72201;SDS011;60105;54.956;73.412;2023-07-09T09:36:57;6.50;;;3.25;;
72201;SDS011;60105;54.956;73.412;2023-07-09T09:40:27;8.20;;;2.42;;
72201;SDS011;60105;54.956;73.412;2023-07-09T09:43:32;10.33;;;3.00;;
72201;SDS011;60105;54.956;73.412;2023-07-09T09:46:34;9.57;;;2.67;;
72201;SDS011;60105;54.956;73.412;2023-07-09T09:49:38;7.80;;;2.75;;
72201;SDS011;60105;54.956;73.412;2023-07-09T09:52:43;6.18;;;2.88;;
72201;SDS011;60105;54.956;73.412;2023-07-09T09:55:49;6.07;;;3.10;;
72201;SDS011;60105;54.956;73.412;2023-07-09T09:58:53;9.13;;;2.63;;
72201;SDS011;60105;54.956;73.412;2023-07-09T10:02:00;7.33;;;2.97;;
72201;SDS011;60105;54.956;73.412;2023-07-09T10:11:46;6.80;;;3.20;;
72201;SDS011;60105;54.956;73.412;2023-07-09T10:19:02;6.93;;;2.75;;
72201;SDS011;60105;54.956;73.412;2023-07-09T10:26:25;6.73;;;2.90;;
72201;SDS011;60105;54.956;73.412;2023-07-09T10:39:22;10.25;;;3.00;;
72201;SDS011;60105;54.956;73.412;2023-07-09T10:45:56;9.48;;;3.33;;
72201;SDS011;60105;54.956;73.412;2023-07-09T10:49:00;9.60;;;3.35;;
72201;SDS011;60105;54.956;73.412;2023-07-09T10:52:07;9.40;;;2.90;;
72201;SDS011;60105;54.956;73.412;2023-07-09T10:55:42;7.73;;;3.50;;
72201;SDS011;60105;54.956;73.412;2023-07-09T11:02:27;14.30;;;3.50;;
72201;SDS011;60105;54.956;73.412;2023-07-09T11:05:33;13.02;;;3.08;;
72201;SDS011;60105;54.956;73.412;2023-07-09T11:08:35;10.43;;;2.90;;
72201;SDS011;60105;54.956;73.412;2023-07-09T11:11:43;12.02;;;4.07;;
72201;SDS011;60105;54.956;73.412;2023-07-09T11:15:28;9.07;;;3.72;;
72201;SDS011;60105;54.956;73.412;2023-07-09T11:18:51;7.10;;;3.58;;
72201;SDS011;60105;54.956;73.412;2023-07-09T11:25:15;8.83;;;3.77;;
72201;SDS011;60105;54.956;73.412;2023-07-09T11:28:36;15.38;;;4.50;;
72201;SDS011;60105;54.956;73.412;2023-07-09T11:31:40;12.67;;;3.93;;
72201;SDS011;60105;54.956;73.412;2023-07-09T11:35:26;17.42;;;3.94;;
72201;SDS011;60105;54.956;73.412;2023-07-09T11:38:48;11.55;;;3.70;;
72201;SDS011;60105;54.956;73.412;2023-07-09T11:41:49;9.20;;;3.97;;
72201;SDS011;60105;54.956;73.412;2023-07-09T11:45:27;8.48;;;3.65;;
72201;SDS011;60105;54.956;73.412;2023-07-09T11:48:31;11.17;;;3.90;;
72201;SDS011;60105;54.956;73.412;2023-07-09T11:51:38;11.48;;;3.72;;
72201;SDS011;60105;54.956;73.412;2023-07-09T11:54:54;15.26;;;3.89;;
72201;SDS011;60105;54.956;73.412;2023-07-09T11:57:58;10.98;;;3.50;;
72201;SDS011;60105;54.956;73.412;2023-07-09T12:01:01;10.97;;;4.07;;
72201;SDS011;60105;54.956;73.412;2023-07-09T12:04:13;15.70;;;4.50;;
72201;SDS011;60105;54.956;73.412;2023-07-09T12:07:16;10.63;;;4.00;;
72201;SDS011;60105;54.956;73.412;2023-07-09T12:10:27;10.20;;;4.00;;
72201;SDS011;60105;54.956;73.412;2023-07-09T12:13:36;7.83;;;3.53;;
72201;SDS011;60105;54.956;73.412;2023-07-09T12:16:40;8.98;;;4.00;;
72201;SDS011;60105;54.956;73.412;2023-07-09T12:20:29;11.20;;;4.07;;
72201;SDS011;60105;54.956;73.412;2023-07-09T12:23:32;14.00;;;4.28;;
72201;SDS011;60105;54.956;73.412;2023-07-09T12:26:34;10.17;;;4.00;;
72201;SDS011;60105;54.956;73.412;2023-07-09T12:29:35;8.35;;;4.07;;
72201;SDS011;60105;54.956;73.412;2023-07-09T12:32:42;8.82;;;3.90;;
72201;SDS011;60105;54.956;73.412;2023-07-09T12:35:51;8.40;;;4.10;;
72201;SDS011;60105;54.956;73.412;2023-07-09T12:38:59;9.85;;;4.43;;
72201;SDS011;60105;54.956;73.412;2023-07-09T12:42:03;12.23;;;4.70;;
72201;SDS011;60105;54.956;73.412;2023-07-09T12:48:36;8.82;;;3.47;;
72201;SDS011;60105;54.956;73.412;2023-07-09T12:51:38;12.73;;;4.53;;
72201;SDS011;60105;54.956;73.412;2023-07-09T12:54:40;10.27;;;4.30;;
72201;SDS011;60105;54.956;73.412;2023-07-09T12:57:41;12.13;;;4.32;;
72201;SDS011;60105;54.956;73.412;2023-07-09T13:00:43;7.03;;;4.10;;
72201;SDS011;60105;54.956;73.412;2023-07-09T13:03:56;10.95;;;5.00;;
72201;SDS011;60105;54.956;73.412;2023-07-09T13:06:57;8.07;;;3.67;;
72201;SDS011;60105;54.956;73.412;2023-07-09T13:10:29;6.20;;;2.65;;
72201;SDS011;60105;54.956;73.412;2023-07-09T13:13:32;7.83;;;4.13;;
72201;SDS011;60105;54.956;73.412;2023-07-09T13:16:42;6.40;;;3.80;;
72201;SDS011;60105;54.956;73.412;2023-07-09T13:20:26;8.03;;;4.24;;
72201;SDS011;60105;54.956;73.412;2023-07-09T13:23:28;8.13;;;4.07;;
72201;SDS011;60105;54.956;73.412;2023-07-09T13:26:33;7.47;;;4.50;;
72201;SDS011;60105;54.956;73.412;2023-07-09T13:29:34;10.15;;;4.60;;
72201;SDS011;60105;54.956;73.412;2023-07-09T13:32:36;8.33;;;4.33;;
72201;SDS011;60105;54.956;73.412;2023-07-09T13:35:38;7.50;;;4.40;;
72201;SDS011;60105;54.956;73.412;2023-07-09T13:38:39;8.55;;;4.55;;
72201;SDS011;60105;54.956;73.412;2023-07-09T13:41:43;8.83;;;4.83;;
72201;SDS011;60105;54.956;73.412;2023-07-09T13:45:26;8.14;;;4.42;;
72201;SDS011;60105;54.956;73.412;2023-07-09T13:48:27;8.00;;;4.43;;
72201;SDS011;60105;54.956;73.412;2023-07-09T13:51:29;9.68;;;5.20;;
72201;SDS011;60105;54.956;73.412;2023-07-09T13:54:32;8.60;;;5.35;;
72201;SDS011;60105;54.956;73.412;2023-07-09T13:57:38;10.73;;;4.73;;
72201;SDS011;60105;54.956;73.412;2023-07-09T14:00:40;12.07;;;5.27;;
72201;SDS011;60105;54.956;73.412;2023-07-09T14:03:43;12.17;;;5.10;;
72201;SDS011;60105;54.956;73.412;2023-07-09T14:06:45;9.53;;;5.17;;
72201;SDS011;60105;54.956;73.412;2023-07-09T14:10:26;11.05;;;4.80;;
72201;SDS011;60105;54.956;73.412;2023-07-09T14:13:27;12.00;;;4.47;;
72201;SDS011;60105;54.956;73.412;2023-07-09T14:16:30;10.80;;;5.37;;
72201;SDS011;60105;54.956;73.412;2023-07-09T14:19:32;9.10;;;5.07;;
72201;SDS011;60105;54.956;73.412;2023-07-09T14:22:35;8.93;;;5.28;;
72201;SDS011;60105;54.956;73.412;2023-07-09T14:25:38;13.50;;;5.57;;
72201;SDS011;60105;54.956;73.412;2023-07-09T14:28:39;9.80;;;5.47;;
72201;SDS011;60105;54.956;73.412;2023-07-09T14:31:41;10.17;;;5.13;;
72201;SDS011;60105;54.956;73.412;2023-07-09T14:35:26;9.06;;;5.43;;
72201;SDS011;60105;54.956;73.412;2023-07-09T14:38:27;10.95;;;5.05;;
72201;SDS011;60105;54.956;73.412;2023-07-09T14:41:28;17.52;;;5.25;;
72201;SDS011;60105;54.956;73.412;2023-07-09T14:44:30;8.80;;;5.38;;
72201;SDS011;60105;54.956;73.412;2023-07-09T14:47:32;14.90;;;5.40;;
72201;SDS011;60105;54.956;73.412;2023-07-09T14:50:34;12.93;;;5.73;;
72201;SDS011;60105;54.956;73.412;2023-07-09T14:53:35;13.03;;;6.40;;
72201;SDS011;60105;54.956;73.412;2023-07-09T14:56:37;13.27;;;6.35;;
72201;SDS011;60105;54.956;73.412;2023-07-09T14:59:40;10.57;;;5.38;;
72201;SDS011;60105;54.956;73.412;2023-07-09T15:02:42;10.60;;;5.80;;
72201;SDS011;60105;54.956;73.412;2023-07-09T15:05:45;10.20;;;5.60;;
72201;SDS011;60105;54.956;73.412;2023-07-09T15:08:46;15.02;;;5.75;;
72201;SDS011;60105;54.956;73.412;2023-07-09T15:11:48;13.18;;;5.22;;
72201;SDS011;60105;54.956;73.412;2023-07-09T15:15:26;10.77;;;5.53;;
72201;SDS011;60105;54.956;73.412;2023-07-09T15:18:30;8.25;;;4.90;;
72201;SDS011;60105;54.956;73.412;2023-07-09T15:21:34;10.43;;;5.80;;
72201;SDS011;60105;54.956;73.412;2023-07-09T15:24:36;13.05;;;5.75;;
72201;SDS011;60105;54.956;73.412;2023-07-09T15:27:37;11.93;;;5.20;;
72201;SDS011;60105;54.956;73.412;2023-07-09T15:30:39;9.88;;;4.57;;
72201;SDS011;60105;54.956;73.412;2023-07-09T15:33:40;9.87;;;5.13;;
72201;SDS011;60105;54.956;73.412;2023-07-09T15:36:45;9.52;;;5.22;;
72201;SDS011;60105;54.956;73.412;2023-07-09T15:40:26;10.32;;;5.03;;
72201;SDS011;60105;54.956;73.412;2023-07-09T15:43:35;13.43;;;4.70;;
72201;SDS011;60105;54.956;73.412;2023-07-09T15:46:37;10.03;;;5.37;;
72201;SDS011;60105;54.956;73.412;2023-07-09T15:49:41;13.37;;;5.10;;
72201;SDS011;60105;54.956;73.412;2023-07-09T15:52:42;9.43;;;5.10;;
72201;SDS011;60105;54.956;73.412;2023-07-09T15:55:44;13.13;;;5.40;;
72201;SDS011;60105;54.956;73.412;2023-07-09T15:58:46;10.98;;;4.82;;
72201;SDS011;60105;54.956;73.412;2023-07-09T16:01:47;11.07;;;5.40;;
72201;SDS011;60105;54.956;73.412;2023-07-09T16:05:26;10.38;;;5.25;;
72201;SDS011;60105;54.956;73.412;2023-07-09T16:08:29;15.77;;;5.43;;
72201;SDS011;60105;54.956;73.412;2023-07-09T16:11:31;9.60;;;6.10;;
72201;SDS011;60105;54.956;73.412;2023-07-09T16:14:33;14.82;;;5.43;;
72201;SDS011;60105;54.956;73.412;2023-07-09T16:17:34;9.37;;;5.37;;
72201;SDS011;60105;54.956;73.412;2023-07-09T16:20:35;9.53;;;5.00;;
72201;SDS011;60105;54.956;73.412;2023-07-09T16:23:37;12.70;;;6.13;;
72201;SDS011;60105;54.956;73.412;2023-07-09T16:26:38;13.87;;;6.57;;
72201;SDS011;60105;54.956;73.412;2023-07-09T16:29:39;10.48;;;5.78;;
72201;SDS011;60105;54.956;73.412;2023-07-09T16:32:41;14.73;;;6.33;;
72201;SDS011;60105;54.956;73.412;2023-07-09T16:35:43;12.02;;;6.43;;
72201;SDS011;60105;54.956;73.412;2023-07-09T16:38:47;12.20;;;6.60;;
72201;SDS011;60105;54.956;73.412;2023-07-09T16:41:50;12.90;;;5.70;;
72201;SDS011;60105;54.956;73.412;2023-07-09T16:45:25;18.92;;;7.10;;
72201;SDS011;60105;54.956;73.412;2023-07-09T16:48:28;13.90;;;7.37;;
72201;SDS011;60105;54.956;73.412;2023-07-09T16:51:29;15.03;;;6.33;;
72201;SDS011;60105;54.956;73.412;2023-07-09T16:54:30;18.48;;;7.07;;
72201;SDS011;60105;54.956;73.412;2023-07-09T16:57:31;18.50;;;7.13;;
72201;SDS011;60105;54.956;73.412;2023-07-09T17:00:37;15.80;;;7.43;;
72201;SDS011;60105;54.956;73.412;2023-07-09T17:03:38;15.00;;;7.30;;
72201;SDS011;60105;54.956;73.412;2023-07-09T17:06:41;18.10;;;8.30;;
72201;SDS011;60105;54.956;73.412;2023-07-09T17:10:25;16.96;;;7.91;;
72201;SDS011;60105;54.956;73.412;2023-07-09T17:13:27;14.75;;;7.85;;
72201;SDS011;60105;54.956;73.412;2023-07-09T17:16:28;20.92;;;8.63;;
72201;SDS011;60105;54.956;73.412;2023-07-09T17:19:30;19.17;;;9.17;;
72201;SDS011;60105;54.956;73.412;2023-07-09T17:22:32;20.27;;;9.90;;
72201;SDS011;60105;54.956;73.412;2023-07-09T17:25:35;19.23;;;9.27;;
72201;SDS011;60105;54.956;73.412;2023-07-09T17:28:38;22.05;;;9.25;;
72201;SDS011;60105;54.956;73.412;2023-07-09T17:31:40;14.77;;;8.10;;
72201;SDS011;60105;54.956;73.412;2023-07-09T17:34:41;20.00;;;9.10;;
72201;SDS011;60105;54.956;73.412;2023-07-09T17:37:47;15.47;;;8.57;;
72201;SDS011;60105;54.956;73.412;2023-07-09T17:40:52;16.48;;;8.13;;
72201;SDS011;60105;54.956;73.412;2023-07-09T17:43:54;16.73;;;7.60;;
72201;SDS011;60105;54.956;73.412;2023-07-09T17:46:55;16.23;;;7.40;;
72201;SDS011;60105;54.956;73.412;2023-07-09T17:50:26;19.52;;;6.90;;
72201;SDS011;60105;54.956;73.412;2023-07-09T17:53:28;15.70;;;8.15;;
72201;SDS011;60105;54.956;73.412;2023-07-09T17:56:31;14.90;;;7.32;;
72201;SDS011;60105;54.956;73.412;2023-07-09T17:59:33;13.85;;;7.03;;
72201;SDS011;60105;54.956;73.412;2023-07-09T18:02:37;12.70;;;7.30;;
72201;SDS011;60105;54.956;73.412;2023-07-09T18:05:39;14.63;;;7.22;;
72201;SDS011;60105;54.956;73.412;2023-07-09T18:08:41;13.43;;;7.22;;
72201;SDS011;60105;54.956;73.412;2023-07-09T18:11:43;15.07;;;7.00;;
72201;SDS011;60105;54.956;73.412;2023-07-09T18:15:26;10.82;;;6.25;;
72201;SDS011;60105;54.956;73.412;2023-07-09T18:18:27;12.65;;;6.00;;
72201;SDS011;60105;54.956;73.412;2023-07-09T18:21:28;15.30;;;5.87;;
72201;SDS011;60105;54.956;73.412;2023-07-09T18:24:30;10.13;;;5.57;;
72201;SDS011;60105;54.956;73.412;2023-07-09T18:27:32;12.65;;;5.82;;
72201;SDS011;60105;54.956;73.412;2023-07-09T18:30:37;9.50;;;5.28;;
72201;SDS011;60105;54.956;73.412;2023-07-09T18:33:39;13.70;;;5.90;;
72201;SDS011;60105;54.956;73.412;2023-07-09T18:36:40;17.73;;;6.33;;
72201;SDS011;60105;54.956;73.412;2023-07-09T18:40:30;13.87;;;6.83;;
72201;SDS011;60105;54.956;73.412;2023-07-09T18:43:35;12.45;;;5.82;;
72201;SDS011;60105;54.956;73.412;2023-07-09T18:46:36;12.32;;;5.80;;
72201;SDS011;60105;54.956;73.412;2023-07-09T18:49:37;16.35;;;5.90;;
72201;SDS011;60105;54.956;73.412;2023-07-09T18:52:45;12.70;;;5.87;;
72201;SDS011;60105;54.956;73.412;2023-07-09T18:55:46;11.88;;;6.03;;
72201;SDS011;60105;54.956;73.412;2023-07-09T18:58:47;12.40;;;5.60;;
72201;SDS011;60105;54.956;73.412;2023-07-09T19:01:49;14.83;;;5.63;;
72201;SDS011;60105;54.956;73.412;2023-07-09T19:05:27;17.20;;;5.50;;
72201;SDS011;60105;54.956;73.412;2023-07-09T19:08:29;12.52;;;5.68;;
72201;SDS011;60105;54.956;73.412;2023-07-09T19:11:31;9.30;;;5.50;;
72201;SDS011;60105;54.956;73.412;2023-07-09T19:14:32;12.32;;;5.70;;
72201;SDS011;60105;54.956;73.412;2023-07-09T19:17:34;10.43;;;5.67;;
72201;SDS011;60105;54.956;73.412;2023-07-09T19:20:35;8.55;;;5.05;;
72201;SDS011;60105;54.956;73.412;2023-07-09T19:23:36;9.23;;;6.00;;